createdAt,value
2022-12-18T00:00:34.797Z,69.77
2022-12-18T00:03:05.057Z,69.48
2022-12-18T00:05:35.318Z,69.65
2022-12-18T00:08:09.383Z,69.83
2022-12-18T00:10:39.759Z,70.12
2022-12-18T00:13:10.467Z,70.16
2022-12-18T00:15:41.093Z,69.85
2022-12-18T00:18:13.813Z,69.96
2022-12-18T00:20:46.285Z,69.76
2022-12-18T00:23:16.543Z,69.67
2022-12-18T00:25:46.900Z,69.53
2022-12-18T00:28:17.058Z,69.60
2022-12-18T00:30:47.228Z,69.77
2022-12-18T00:33:17.439Z,69.40
2022-12-18T00:35:47.671Z,69.11
2022-12-18T00:38:17.887Z,69.33
2022-12-18T00:40:50.033Z,69.04
2022-12-18T00:43:20.173Z,69.18
2022-12-18T00:45:50.517Z,69.19
2022-12-18T00:48:20.765Z,69.30
2022-12-18T00:50:51.742Z,69.40
2022-12-18T00:53:22.067Z,69.23
2022-12-18T00:55:52.206Z,69.35
2022-12-18T00:58:22.569Z,69.53
2022-12-18T01:00:52.777Z,69.12
2022-12-18T01:03:22.978Z,69.25
2022-12-18T01:05:53.095Z,69.30
2022-12-18T01:08:23.519Z,69.39
2022-12-18T01:10:53.742Z,69.21
2022-12-18T01:13:23.972Z,70.05
2022-12-18T01:15:54.239Z,69.82
2022-12-18T01:18:24.450Z,69.69
2022-12-18T01:20:54.597Z,69.77
2022-12-18T01:23:27.578Z,69.59
2022-12-18T01:26:05.034Z,70.09
2022-12-18T01:28:35.294Z,69.90
2022-12-18T01:31:18.158Z,70.17
2022-12-18T01:33:52.533Z,70.49
2022-12-18T01:36:27.614Z,70.34
2022-12-18T01:39:00.180Z,70.71
2022-12-18T01:41:52.075Z,70.45
2022-12-18T01:45:02.592Z,71.12
2022-12-18T01:47:45.736Z,70.74
2022-12-18T01:50:28.368Z,70.20
2022-12-18T01:53:07.602Z,70.70
2022-12-18T01:55:53.355Z,70.90
2022-12-18T01:58:32.231Z,70.88
2022-12-18T02:01:02.629Z,71.06
2022-12-18T02:03:32.827Z,70.80
2022-12-18T02:06:41.253Z,71.56
2022-12-18T02:09:35.651Z,71.49
2022-12-18T02:12:34.406Z,71.25
2022-12-18T02:15:16.623Z,71.24
2022-12-18T02:18:02.036Z,71.12
2022-12-18T02:20:46.992Z,71.21
2022-12-18T02:23:40.065Z,70.92
2022-12-18T02:26:28.342Z,71.07
2022-12-18T02:29:11.619Z,71.21
2022-12-18T02:31:48.293Z,71.01
2022-12-18T02:34:20.820Z,70.49
2022-12-18T02:36:52.778Z,70.76
2022-12-18T02:39:25.305Z,71.00
2022-12-18T02:41:55.752Z,70.76
2022-12-18T02:44:25.931Z,70.79
2022-12-18T02:46:56.205Z,70.38
2022-12-18T02:49:47.486Z,70.84
2022-12-18T02:52:45.480Z,70.54
2022-12-18T02:55:24.818Z,70.67
2022-12-18T02:57:59.792Z,70.50
2022-12-18T03:00:49.599Z,70.58
2022-12-18T03:03:31.579Z,70.46
2022-12-18T03:06:10.885Z,70.32
2022-12-18T03:08:46.182Z,70.50
2022-12-18T03:11:16.761Z,70.60
2022-12-18T03:13:57.366Z,70.25
2022-12-18T03:16:31.426Z,70.47
2022-12-18T03:19:10.244Z,70.48
2022-12-18T03:21:46.893Z,70.09
2022-12-18T03:24:20.000Z,70.33
2022-12-18T03:26:53.798Z,70.01
2022-12-18T03:29:40.112Z,69.73
2022-12-18T03:32:22.206Z,70.12
2022-12-18T03:34:55.026Z,69.87
2022-12-18T03:37:25.315Z,69.79
2022-12-18T03:39:55.513Z,69.83
2022-12-18T03:42:25.611Z,69.64
2022-12-18T03:45:04.825Z,69.66
2022-12-18T03:47:42.435Z,69.25
2022-12-18T03:50:33.989Z,69.33
2022-12-18T03:53:48.696Z,69.12
2022-12-18T03:56:21.422Z,69.07
2022-12-18T03:58:54.462Z,69.24
2022-12-18T04:01:30.910Z,68.91
2022-12-18T04:04:03.392Z,68.75
2022-12-18T04:06:33.958Z,69.20
2022-12-18T04:09:05.171Z,68.74
2022-12-18T04:11:35.374Z,69.02
2022-12-18T04:14:07.324Z,68.71
2022-12-18T04:16:37.934Z,68.81
2022-12-18T04:19:08.137Z,69.13
2022-12-18T04:21:38.299Z,68.79
2022-12-18T04:24:08.545Z,68.52
2022-12-18T04:26:39.495Z,68.62
2022-12-18T04:29:11.172Z,68.56
2022-12-18T04:31:41.294Z,68.39
2022-12-18T04:34:11.462Z,68.27
2022-12-18T04:36:41.655Z,68.01
2022-12-18T04:39:12.110Z,67.91
2022-12-18T04:41:42.424Z,68.10
2022-12-18T04:44:12.650Z,68.21
2022-12-18T04:46:42.968Z,67.91
2022-12-18T04:49:13.661Z,68.04
2022-12-18T04:51:43.785Z,68.17
2022-12-18T04:54:13.920Z,68.15
2022-12-18T04:56:44.048Z,67.88
2022-12-18T04:59:14.373Z,67.89
2022-12-18T05:01:44.712Z,67.75
2022-12-18T05:04:15.262Z,68.14
2022-12-18T05:06:45.433Z,67.46
2022-12-18T05:09:15.753Z,67.65
2022-12-18T05:11:45.991Z,67.50
2022-12-18T05:14:16.661Z,67.53
2022-12-18T05:16:46.862Z,67.60
2022-12-18T05:19:17.078Z,67.59
2022-12-18T05:21:47.265Z,67.93
2022-12-18T05:24:17.454Z,67.73
2022-12-18T05:26:47.825Z,67.82
2022-12-18T05:29:18.098Z,67.67
2022-12-18T05:31:48.286Z,67.50
2022-12-18T05:34:18.590Z,67.77
2022-12-18T05:36:48.788Z,67.57
2022-12-18T05:39:18.921Z,67.56
2022-12-18T05:41:49.032Z,67.78
2022-12-18T05:44:19.086Z,67.61
2022-12-18T05:46:49.394Z,67.44
2022-12-18T05:49:19.557Z,67.68
2022-12-18T05:51:50.916Z,67.95
2022-12-18T05:54:21.044Z,67.69
2022-12-18T05:56:51.251Z,67.73
2022-12-18T05:59:21.430Z,67.51
2022-12-18T06:01:51.770Z,67.65
2022-12-18T06:04:22.072Z,67.51
2022-12-18T06:06:52.170Z,67.94
2022-12-18T06:09:22.318Z,67.62
2022-12-18T06:11:53.786Z,67.48
2022-12-18T06:14:24.013Z,68.00
2022-12-18T06:16:54.165Z,67.54
2022-12-18T06:19:24.370Z,67.70
2022-12-18T06:21:54.533Z,67.73
2022-12-18T06:24:24.625Z,67.61
2022-12-18T06:26:54.718Z,67.76
2022-12-18T06:29:24.879Z,67.56
2022-12-18T06:31:55.010Z,67.51
2022-12-18T06:34:25.357Z,67.52
2022-12-18T06:36:55.492Z,67.25
2022-12-18T06:39:26.029Z,67.56
2022-12-18T06:41:56.515Z,67.34
2022-12-18T06:44:26.750Z,67.31
2022-12-18T06:46:56.991Z,67.18
2022-12-18T06:49:30.403Z,67.12
2022-12-18T06:52:01.063Z,66.87
2022-12-18T06:54:33.537Z,67.19
2022-12-18T06:57:03.834Z,67.11
2022-12-18T06:59:34.017Z,67.18
2022-12-18T07:02:04.370Z,66.86
2022-12-18T07:04:34.707Z,66.97
2022-12-18T07:07:06.652Z,66.77
2022-12-18T07:09:39.064Z,67.11
2022-12-18T07:12:09.651Z,67.43
2022-12-18T07:14:42.565Z,67.00
2022-12-18T07:17:12.800Z,66.96
2022-12-18T07:19:42.910Z,66.92
2022-12-18T07:22:13.110Z,67.09
2022-12-18T07:24:43.257Z,67.07
2022-12-18T07:27:13.355Z,66.80
2022-12-18T07:29:43.542Z,66.99
2022-12-18T07:32:13.787Z,67.14
2022-12-18T07:34:44.870Z,67.01
2022-12-18T07:37:15.005Z,66.82
2022-12-18T07:39:45.589Z,66.94
2022-12-18T07:42:31.720Z,67.01
2022-12-18T07:45:02.971Z,66.76
2022-12-18T07:47:35.893Z,66.90
2022-12-18T07:50:06.675Z,66.99
2022-12-18T07:52:36.903Z,67.04
2022-12-18T07:55:07.395Z,66.68
2022-12-18T07:57:57.648Z,66.88
2022-12-18T08:00:27.955Z,66.72
2022-12-18T08:02:58.721Z,66.88
2022-12-18T08:05:29.547Z,66.64
2022-12-18T08:07:59.613Z,66.86
2022-12-18T08:10:29.787Z,66.87
2022-12-18T08:13:04.603Z,66.79
2022-12-18T08:15:35.153Z,66.76
2022-12-18T08:18:06.541Z,67.00
2022-12-18T08:20:39.224Z,66.94
2022-12-18T08:23:09.738Z,67.14
2022-12-18T08:25:39.893Z,66.99
2022-12-18T08:28:10.091Z,67.00
2022-12-18T08:30:40.384Z,67.13
2022-12-18T08:33:10.631Z,67.10
2022-12-18T08:35:45.557Z,67.08
2022-12-18T08:38:16.290Z,66.86
2022-12-18T08:40:46.730Z,66.84
2022-12-18T08:43:35.262Z,66.81
2022-12-18T08:46:05.537Z,66.77
2022-12-18T08:48:35.834Z,66.73
2022-12-18T08:51:06.286Z,66.71
2022-12-18T08:53:37.622Z,66.80
2022-12-18T08:56:08.876Z,67.02
2022-12-18T08:58:39.138Z,66.66
2022-12-18T09:01:11.710Z,66.54
2022-12-18T09:03:42.381Z,66.98
2022-12-18T09:06:16.852Z,66.74
2022-12-18T09:08:47.112Z,66.68
2022-12-18T09:11:23.047Z,66.58
2022-12-18T09:13:54.973Z,66.32
2022-12-18T09:16:31.633Z,66.33
2022-12-18T09:19:04.562Z,66.47
2022-12-18T09:21:36.887Z,66.72
2022-12-18T09:24:08.852Z,66.64
2022-12-18T09:26:39.386Z,66.65
2022-12-18T09:29:10.538Z,66.85
2022-12-18T09:31:40.827Z,66.71
2022-12-18T09:34:11.112Z,66.66
2022-12-18T09:36:41.208Z,66.80
2022-12-18T09:39:11.394Z,66.95
2022-12-18T09:41:46.864Z,66.76
2022-12-18T09:44:20.589Z,66.57
2022-12-18T09:47:18.537Z,66.71
2022-12-18T09:49:53.912Z,66.58
2022-12-18T09:52:32.825Z,66.72
2022-12-18T09:55:37.225Z,66.39
2022-12-18T09:58:16.676Z,66.57
2022-12-18T10:00:50.457Z,66.21
2022-12-18T10:03:20.820Z,66.13
2022-12-18T10:05:57.042Z,66.61
2022-12-18T10:08:45.641Z,66.68
2022-12-18T10:11:22.610Z,65.80
2022-12-18T10:14:04.528Z,65.55
2022-12-18T10:16:49.194Z,65.46
2022-12-18T10:19:50.498Z,64.85
2022-12-18T10:22:53.455Z,64.89
2022-12-18T10:25:29.156Z,65.09
2022-12-18T10:28:09.196Z,65.11
2022-12-18T10:30:41.237Z,64.42
2022-12-18T10:33:23.813Z,64.14
2022-12-18T10:35:55.382Z,64.33
2022-12-18T10:38:28.370Z,64.19
2022-12-18T10:40:58.596Z,63.73
2022-12-18T10:43:37.191Z,63.29
2022-12-18T10:46:13.004Z,63.98
2022-12-18T10:48:49.319Z,62.94
2022-12-18T10:51:34.729Z,61.64
2022-12-18T10:54:07.977Z,62.97
2022-12-18T10:56:40.143Z,62.43
2022-12-18T10:59:14.178Z,62.17
2022-12-18T11:01:53.999Z,62.17
2022-12-18T11:04:37.695Z,61.64
2022-12-18T11:07:10.157Z,61.57
2022-12-18T11:09:41.795Z,61.53
2022-12-18T11:12:12.029Z,60.95
2022-12-18T11:14:52.889Z,59.77
2022-12-18T11:17:36.878Z,60.24
2022-12-18T11:20:28.482Z,59.90
2022-12-18T11:23:04.417Z,58.83
2022-12-18T11:25:36.186Z,58.94
2022-12-18T11:28:43.436Z,54.36
2022-12-18T11:31:22.413Z,57.36
2022-12-18T11:34:34.277Z,55.70
2022-12-18T11:37:05.613Z,57.54
2022-12-18T11:39:51.524Z,53.25
2022-12-18T11:42:29.217Z,55.70
2022-12-18T11:45:19.706Z,54.81
2022-12-18T11:48:08.103Z,54.59
2022-12-18T11:50:49.577Z,56.54
2022-12-18T11:53:20.549Z,56.14
2022-12-18T11:56:05.044Z,55.06
2022-12-18T11:58:41.405Z,54.89
2022-12-18T12:01:29.361Z,55.02
2022-12-18T12:04:08.207Z,55.42
2022-12-18T12:06:51.016Z,52.89
2022-12-18T12:09:49.467Z,51.26
2022-12-18T12:12:49.130Z,55.02
2022-12-18T12:16:04.604Z,49.37
2022-12-18T12:18:46.549Z,52.87
2022-12-18T12:21:38.043Z,49.61
2022-12-18T12:24:28.940Z,50.57
2022-12-18T12:27:22.746Z,50.64
2022-12-18T12:30:02.010Z,52.12
2022-12-18T12:32:43.956Z,52.61
2022-12-18T12:35:56.436Z,47.77
2022-12-18T12:38:49.832Z,52.91
2022-12-18T12:41:50.136Z,52.93
2022-12-18T12:44:34.878Z,49.27
2022-12-18T12:47:20.243Z,50.82
2022-12-18T12:49:51.937Z,54.34
2022-12-18T12:52:45.550Z,50.67
2022-12-18T12:55:23.757Z,54.61
2022-12-18T12:58:09.423Z,55.61
2022-12-18T13:01:06.038Z,53.83
2022-12-18T13:03:49.512Z,55.72
2022-12-18T13:06:47.909Z,55.41
2022-12-18T13:09:18.308Z,57.49
2022-12-18T13:12:07.932Z,57.52
2022-12-18T13:14:41.597Z,57.73
2022-12-18T13:17:32.243Z,56.40
2022-12-18T13:20:15.447Z,57.62
2022-12-18T13:22:50.247Z,58.61
2022-12-18T13:25:37.698Z,58.11
2022-12-18T13:28:14.386Z,58.84
2022-12-18T13:30:55.667Z,59.24
2022-12-18T13:33:30.784Z,59.10
2022-12-18T13:36:15.981Z,59.21
2022-12-18T13:38:46.964Z,59.19
2022-12-18T13:41:25.537Z,59.34
2022-12-18T13:43:59.985Z,59.87
2022-12-18T13:46:43.122Z,60.08
2022-12-18T13:49:13.450Z,60.51
2022-12-18T13:51:54.088Z,60.31
2022-12-18T13:54:36.503Z,60.41
2022-12-18T13:57:26.720Z,60.49
2022-12-18T13:59:58.417Z,60.55
2022-12-18T14:02:29.697Z,60.95
2022-12-18T14:05:00.453Z,61.07
2022-12-18T14:07:38.104Z,60.95
2022-12-18T14:13:10.941Z,61.12
2022-12-18T14:15:45.469Z,61.29
2022-12-18T14:18:15.620Z,61.70
2022-12-18T14:20:50.741Z,61.45
2022-12-18T14:23:35.426Z,61.86
2022-12-18T14:26:21.921Z,61.86
2022-12-18T14:28:52.693Z,62.01
2022-12-18T14:31:25.932Z,62.23
2022-12-18T14:33:56.944Z,62.31
2022-12-18T14:36:30.602Z,61.95
2022-12-18T14:39:02.228Z,62.32
2022-12-18T14:41:34.278Z,62.27
2022-12-18T14:44:08.258Z,62.23
2022-12-18T14:46:41.224Z,62.54
2022-12-18T14:49:24.196Z,62.43
2022-12-18T14:51:56.676Z,62.93
2022-12-18T14:54:29.290Z,62.89
2022-12-18T14:57:05.221Z,62.50
2022-12-18T14:59:35.435Z,63.05
2022-12-18T15:02:22.055Z,63.05
2022-12-18T15:05:14.280Z,63.28
2022-12-18T15:07:50.875Z,63.34
2022-12-18T15:10:30.440Z,63.27
2022-12-18T15:13:01.736Z,62.99
2022-12-18T15:15:35.310Z,63.29
2022-12-18T15:18:14.426Z,63.63
2022-12-18T15:20:47.478Z,63.14
2022-12-18T15:23:37.832Z,63.85
2022-12-18T15:26:11.664Z,63.58
2022-12-18T15:28:51.242Z,63.67
2022-12-18T15:31:25.519Z,63.63
2022-12-18T15:33:55.754Z,64.03
2022-12-18T15:36:37.496Z,63.87
2022-12-18T15:39:07.890Z,64.03
2022-12-18T15:41:38.048Z,64.58
2022-12-18T15:44:25.846Z,64.95
2022-12-18T15:46:59.831Z,64.73
2022-12-18T15:49:30.018Z,64.46
2022-12-18T15:52:01.183Z,64.37
2022-12-18T15:54:50.106Z,64.60
2022-12-18T15:57:26.286Z,64.48
2022-12-18T16:00:00.762Z,64.60
2022-12-18T16:02:31.130Z,64.72
2022-12-18T16:05:01.936Z,64.57
2022-12-18T16:07:33.317Z,64.42
2022-12-18T16:10:04.641Z,64.12
2022-12-18T16:12:35.375Z,64.48
2022-12-18T16:15:07.736Z,64.72
2022-12-18T16:17:39.284Z,64.66
2022-12-18T16:20:16.191Z,64.79
2022-12-18T16:22:48.292Z,64.87
2022-12-18T16:25:27.470Z,64.97
2022-12-18T16:27:57.983Z,64.46
2022-12-18T16:30:33.089Z,64.70
2022-12-18T16:33:11.712Z,64.74
2022-12-18T16:35:41.926Z,64.74
2022-12-18T16:38:13.124Z,64.68
2022-12-18T16:41:03.217Z,64.49
2022-12-18T16:43:33.422Z,64.73
2022-12-18T16:46:04.349Z,64.67
2022-12-18T16:48:37.535Z,64.56
2022-12-18T16:51:07.828Z,64.54
2022-12-18T16:53:38.247Z,64.47
2022-12-18T16:56:08.649Z,64.81
2022-12-18T16:58:38.889Z,64.46
2022-12-18T17:01:12.130Z,64.77
2022-12-18T17:03:43.689Z,64.52
2022-12-18T17:06:15.441Z,64.44
2022-12-18T17:08:47.166Z,64.70
2022-12-18T17:11:17.334Z,64.64
2022-12-18T17:13:47.543Z,64.20
2022-12-18T17:16:17.891Z,64.30
2022-12-18T17:18:49.083Z,64.43
2022-12-18T17:21:19.572Z,64.54
2022-12-18T17:23:49.946Z,64.75
2022-12-18T17:26:22.549Z,64.70
2022-12-18T17:28:53.078Z,64.59
2022-12-18T17:31:26.338Z,64.69
2022-12-18T17:33:57.432Z,64.74
2022-12-18T17:36:29.244Z,64.32
2022-12-18T17:39:01.656Z,64.96
2022-12-18T17:41:32.031Z,64.91
2022-12-18T17:44:05.719Z,64.82
2022-12-18T17:46:35.951Z,64.64
2022-12-18T17:49:06.199Z,64.87
2022-12-18T17:51:36.455Z,64.93
2022-12-18T17:54:07.015Z,64.89
2022-12-18T17:56:37.339Z,64.96
2022-12-18T17:59:07.803Z,64.87
2022-12-18T18:01:44.143Z,64.73
2022-12-18T18:04:15.882Z,65.18
2022-12-18T18:06:47.690Z,65.00
2022-12-18T18:09:17.840Z,65.21
2022-12-18T18:12:06.487Z,65.13
2022-12-18T18:14:36.732Z,64.94
2022-12-18T18:17:07.302Z,65.02
2022-12-18T18:19:37.579Z,65.25
2022-12-18T18:22:11.548Z,65.01
2022-12-18T18:24:43.745Z,65.30
2022-12-18T18:27:13.871Z,65.27
2022-12-18T18:29:44.421Z,65.04
2022-12-18T18:32:14.671Z,65.25
2022-12-18T18:34:44.952Z,65.42
2022-12-18T18:37:15.169Z,65.16
2022-12-18T18:39:45.437Z,65.05
2022-12-18T18:42:15.690Z,65.19
2022-12-18T18:44:48.969Z,65.36
2022-12-18T18:47:19.364Z,65.16
2022-12-18T18:49:49.578Z,65.07
2022-12-18T18:52:19.770Z,65.19
2022-12-18T18:55:11.607Z,65.48
2022-12-18T18:57:40.053Z,65.22
2022-12-18T19:00:10.947Z,65.33
2022-12-18T19:02:41.541Z,65.34
2022-12-18T19:05:11.982Z,65.40
2022-12-18T19:07:42.436Z,65.46
2022-12-18T19:10:12.643Z,65.40
2022-12-18T19:13:02.743Z,65.29
2022-12-18T19:15:34.453Z,65.23
2022-12-18T19:18:04.808Z,65.37
2022-12-18T19:20:35.109Z,65.39
2022-12-18T19:23:06.600Z,65.19
2022-12-18T19:25:42.177Z,65.21
2022-12-18T19:28:21.262Z,65.58
2022-12-18T19:30:57.587Z,65.28
2022-12-18T19:33:43.249Z,65.51
2022-12-18T19:36:25.630Z,65.41
2022-12-18T19:38:59.636Z,65.47
2022-12-18T19:41:31.183Z,65.19
2022-12-18T19:44:07.570Z,65.41
2022-12-18T19:46:41.623Z,65.40
2022-12-18T19:49:16.757Z,65.48
2022-12-18T19:51:50.505Z,65.39
2022-12-18T19:54:20.930Z,65.61
2022-12-18T19:56:53.041Z,65.52
2022-12-18T19:59:23.864Z,65.30
2022-12-18T20:01:54.478Z,65.41
2022-12-18T20:04:24.832Z,65.35
2022-12-18T20:06:55.440Z,65.30
2022-12-18T20:09:25.768Z,65.66
2022-12-18T20:11:56.413Z,65.28
2022-12-18T20:14:26.609Z,65.54
2022-12-18T20:16:56.842Z,65.67
2022-12-18T20:19:30.058Z,65.40
2022-12-18T20:22:00.344Z,65.58
2022-12-18T20:24:30.513Z,65.37
2022-12-18T20:27:00.721Z,65.30
2022-12-18T20:29:31.032Z,65.77
2022-12-18T20:32:01.387Z,65.53
2022-12-18T20:34:31.740Z,65.55
2022-12-18T20:37:02.172Z,65.57
2022-12-18T20:39:32.846Z,65.67
2022-12-18T20:42:04.477Z,65.67
2022-12-18T20:44:34.713Z,65.50
2022-12-18T20:47:08.429Z,65.71
2022-12-18T20:49:39.569Z,65.34
2022-12-18T20:52:15.951Z,65.75
2022-12-18T20:54:46.213Z,65.49
2022-12-18T20:57:16.362Z,65.43
2022-12-18T20:59:48.533Z,65.64
2022-12-18T21:02:18.996Z,65.73
2022-12-18T21:04:49.498Z,65.66
2022-12-18T21:07:19.926Z,65.58
2022-12-18T21:09:50.303Z,65.50
2022-12-18T21:12:40.283Z,66.19
2022-12-18T21:15:17.783Z,65.68
2022-12-18T21:17:48.582Z,65.55
2022-12-18T21:20:18.908Z,65.84
2022-12-18T21:22:49.613Z,66.04
2022-12-18T21:25:19.826Z,65.90
2022-12-18T21:27:50.010Z,65.98
2022-12-18T21:30:20.528Z,66.12
2022-12-18T21:32:51.018Z,66.06
2022-12-18T21:35:21.228Z,65.89
2022-12-18T21:37:53.486Z,66.14
2022-12-18T21:40:24.078Z,65.96
2022-12-18T21:43:14.955Z,65.79
2022-12-18T21:45:48.047Z,65.68
2022-12-18T21:48:18.288Z,65.92
2022-12-18T21:50:48.398Z,65.99
2022-12-18T21:53:18.551Z,65.82
2022-12-18T21:55:57.988Z,66.09
2022-12-18T21:58:28.213Z,65.56
2022-12-18T22:00:58.415Z,65.69
2022-12-18T22:03:28.761Z,66.23
2022-12-18T22:06:07.562Z,65.81
2022-12-18T22:08:42.618Z,65.67
2022-12-18T22:11:14.219Z,65.51
2022-12-18T22:13:45.903Z,65.82
2022-12-18T22:16:16.082Z,66.08
2022-12-18T22:18:46.308Z,65.73
2022-12-18T22:21:29.642Z,66.07
2022-12-18T22:24:02.514Z,65.78
2022-12-18T22:26:39.841Z,65.77
2022-12-18T22:29:42.819Z,65.58
2022-12-18T22:32:29.087Z,65.79
2022-12-18T22:35:07.305Z,65.69
2022-12-18T22:37:39.609Z,65.88
2022-12-18T22:40:23.926Z,65.95
2022-12-18T22:42:56.344Z,65.76
2022-12-18T22:45:27.059Z,65.64
2022-12-18T22:47:57.504Z,65.72
2022-12-18T22:50:27.820Z,65.65
2022-12-18T22:52:58.151Z,65.47
2022-12-18T22:55:28.297Z,65.79
2022-12-18T22:57:59.729Z,65.65
2022-12-18T23:00:30.681Z,65.94
2022-12-18T23:03:04.497Z,65.77
2022-12-18T23:05:37.405Z,65.78
2022-12-18T23:08:07.584Z,65.31
2022-12-18T23:10:38.981Z,65.46
2022-12-18T23:13:12.295Z,65.11
2022-12-18T23:15:43.032Z,65.21
2022-12-18T23:18:13.214Z,65.18
2022-12-18T23:20:43.637Z,65.63
2022-12-18T23:23:14.625Z,65.28
2022-12-18T23:25:45.289Z,65.47
2022-12-18T23:28:16.919Z,65.21
2022-12-18T23:30:47.067Z,65.55
2022-12-18T23:33:17.183Z,65.23
2022-12-18T23:35:47.438Z,65.42
2022-12-18T23:38:17.683Z,65.61
2022-12-18T23:40:47.934Z,65.41
2022-12-18T23:43:19.176Z,65.11
2022-12-18T23:45:55.399Z,65.06
2022-12-18T23:48:26.330Z,65.49
2022-12-18T23:50:56.938Z,65.64
2022-12-18T23:53:27.050Z,65.72
2022-12-18T23:55:57.239Z,65.44
2022-12-18T23:58:29.759Z,65.31
